createdAt,value
2023-03-01T07:35:43.588Z,-2.09
2023-03-01T07:36:43.485Z,-2.10
2023-03-01T07:37:43.439Z,-2.06
2023-03-01T07:38:43.416Z,-2.00
2023-03-01T07:39:43.410Z,-2.02
2023-03-01T07:40:43.356Z,-1.98
2023-03-01T07:41:43.342Z,-1.98
2023-03-01T07:42:43.312Z,-1.97
2023-03-01T07:43:43.284Z,-1.94
2023-03-01T07:44:43.301Z,-1.88
2023-03-01T07:45:43.267Z,-1.90
2023-03-01T07:46:43.197Z,-1.88
2023-03-01T07:47:43.169Z,-1.82
2023-03-01T07:48:43.145Z,-1.77
2023-03-01T07:49:43.117Z,-1.73
2023-03-01T07:50:43.129Z,-1.73
2023-03-01T07:51:43.145Z,-1.67
2023-03-01T07:52:43.053Z,-1.61
2023-03-01T07:53:43.027Z,-1.61
2023-03-01T07:54:43.004Z,-1.49
2023-03-01T07:55:42.980Z,-1.45
2023-03-01T07:56:42.957Z,-1.41
2023-03-01T07:57:42.934Z,-1.35
2023-03-01T07:58:42.934Z,-1.37
2023-03-01T07:59:42.886Z,-1.27
2023-03-01T08:00:42.862Z,-1.28
2023-03-01T08:01:42.867Z,-1.27
2023-03-01T08:02:42.866Z,-1.25
2023-03-01T08:03:42.793Z,-1.22
2023-03-01T08:04:42.772Z,-1.12
2023-03-01T08:05:42.748Z,-1.10
2023-03-01T08:06:42.728Z,-0.97
2023-03-01T08:07:42.708Z,-0.99
2023-03-01T08:08:42.727Z,-0.99
2023-03-01T08:09:42.658Z,-0.91
2023-03-01T08:10:42.636Z,-0.85
2023-03-01T08:11:42.631Z,-0.79
2023-03-01T08:12:42.588Z,-0.79
2023-03-01T08:13:42.595Z,-0.78
2023-03-01T08:14:42.552Z,-0.75
2023-03-01T08:15:42.571Z,-0.76
2023-03-01T08:16:42.544Z,-0.65
2023-03-01T08:17:42.477Z,-0.61
2023-03-01T08:18:42.461Z,-0.57
2023-03-01T08:19:42.441Z,-0.54
2023-03-01T08:20:42.417Z,-0.51
2023-03-01T08:21:42.400Z,-0.40
2023-03-01T08:22:42.369Z,-0.34
2023-03-01T08:23:42.380Z,-0.33
2023-03-01T08:24:42.336Z,-0.28
2023-03-01T08:25:42.314Z,-0.19
2023-03-01T08:26:42.313Z,-0.10
2023-03-01T08:27:42.262Z,-0.18
2023-03-01T08:28:42.263Z,-0.03
2023-03-01T08:29:42.265Z,0.02
2023-03-01T08:30:42.216Z,0.07
2023-03-01T08:31:42.307Z,0.20
2023-03-01T08:32:42.336Z,0.26
2023-03-01T08:33:42.146Z,0.35
2023-03-01T08:34:42.594Z,0.32
2023-03-01T08:35:42.181Z,0.47
2023-03-01T08:36:42.077Z,0.47
2023-03-01T08:37:42.055Z,0.60
2023-03-01T08:38:42.033Z,0.65
2023-03-01T08:39:42.056Z,0.78
2023-03-01T08:40:41.991Z,0.79
2023-03-01T08:41:41.971Z,0.91
2023-03-01T08:42:41.978Z,0.96
2023-03-01T08:43:41.937Z,1.09
2023-03-01T08:44:41.913Z,1.08
2023-03-01T08:45:41.932Z,1.20
2023-03-01T08:46:41.869Z,1.23
2023-03-01T08:47:41.893Z,1.22
2023-03-01T08:48:41.830Z,1.27
2023-03-01T08:49:41.810Z,1.30
2023-03-01T08:50:42.469Z,1.32
2023-03-01T08:51:41.766Z,1.40
2023-03-01T08:52:41.745Z,1.33
2023-03-01T08:53:41.733Z,1.42
2023-03-01T08:54:41.744Z,1.41
2023-03-01T08:55:41.697Z,1.44
2023-03-01T08:56:41.663Z,1.50
2023-03-01T08:57:41.645Z,1.52
2023-03-01T08:58:41.623Z,1.52
2023-03-01T08:59:41.612Z,1.50
2023-03-01T09:00:41.610Z,1.58
2023-03-01T09:01:41.567Z,1.63
2023-03-01T09:02:41.543Z,1.65
2023-03-01T09:03:41.526Z,1.65
2023-03-01T09:04:41.556Z,1.72
2023-03-01T09:05:41.494Z,1.88
2023-03-01T09:06:41.513Z,1.87
2023-03-01T09:07:41.456Z,1.83
2023-03-01T09:08:41.663Z,1.95
2023-03-01T09:09:41.432Z,1.95
2023-03-01T09:10:41.418Z,1.99
2023-03-01T09:11:41.366Z,1.99
2023-03-01T09:12:41.383Z,2.02
2023-03-01T09:13:44.119Z,2.10
2023-03-01T09:14:41.300Z,2.16
2023-03-01T09:15:41.289Z,2.20
2023-03-01T09:16:41.312Z,2.12
2023-03-01T09:17:41.241Z,2.24
2023-03-01T09:18:41.240Z,2.25
2023-03-01T09:19:41.247Z,2.41
2023-03-01T09:20:41.246Z,2.35
2023-03-01T09:21:41.600Z,2.53
2023-03-01T09:22:41.239Z,2.41
2023-03-01T09:23:41.130Z,2.61
2023-03-01T09:24:41.105Z,2.57
2023-03-01T09:25:41.083Z,2.67
2023-03-01T09:26:41.077Z,2.79
2023-03-01T09:27:41.106Z,2.89
2023-03-01T09:28:41.039Z,2.89
2023-03-01T09:29:41.051Z,2.92
2023-03-01T09:30:41.115Z,2.89
2023-03-01T09:31:40.995Z,2.84
2023-03-01T09:32:40.946Z,2.87
2023-03-01T09:33:40.925Z,2.82
2023-03-01T09:34:40.942Z,2.92
2023-03-01T09:35:40.909Z,2.87
2023-03-01T09:36:40.870Z,2.99
2023-03-01T09:37:40.855Z,3.00
2023-03-01T09:38:40.886Z,3.15
2023-03-01T09:39:40.846Z,3.14
2023-03-01T09:40:40.797Z,3.29
2023-03-01T09:41:40.777Z,3.42
2023-03-01T09:42:40.824Z,3.45
2023-03-01T09:43:40.747Z,3.50
2023-03-01T09:44:40.753Z,3.55
2023-03-01T09:45:40.715Z,3.55
2023-03-01T09:46:40.689Z,3.66
2023-03-01T09:47:40.678Z,3.70
2023-03-01T09:48:40.655Z,3.78
2023-03-01T09:49:40.635Z,3.66
2023-03-01T09:50:40.652Z,3.61
2023-03-01T09:51:40.601Z,3.40
2023-03-01T09:52:40.628Z,3.39
2023-03-01T09:53:40.569Z,3.29
2023-03-01T09:54:40.551Z,3.21
2023-03-01T09:55:41.044Z,3.15
2023-03-01T09:56:40.531Z,3.11
2023-03-01T09:57:40.508Z,3.06
2023-03-01T09:58:40.481Z,3.00
2023-03-01T09:59:40.611Z,2.93
2023-03-01T10:00:40.460Z,2.90
2023-03-01T10:01:40.430Z,2.97
2023-03-01T10:02:40.408Z,3.00
2023-03-01T10:03:40.467Z,2.87
2023-03-01T10:04:40.498Z,2.89
2023-03-01T10:05:40.485Z,2.99
2023-03-01T10:06:40.336Z,2.99
2023-03-01T10:07:40.340Z,3.11
2023-03-01T10:08:40.309Z,3.15
2023-03-01T10:09:40.283Z,3.23
2023-03-01T10:10:40.297Z,3.33
2023-03-01T10:11:40.669Z,3.47
2023-03-01T10:12:40.227Z,3.43
2023-03-01T10:13:40.212Z,3.45
2023-03-01T10:14:40.201Z,3.50
2023-03-01T10:15:40.239Z,3.40
2023-03-01T10:16:40.193Z,3.62
2023-03-01T10:17:40.140Z,3.75
2023-03-01T10:18:40.121Z,3.76
2023-03-01T10:19:40.106Z,3.86
2023-03-01T10:20:40.090Z,3.90
2023-03-01T10:21:40.100Z,3.87
2023-03-01T10:22:40.046Z,3.90
2023-03-01T10:23:40.040Z,4.08
2023-03-01T10:24:40.080Z,4.20
2023-03-01T10:25:42.457Z,4.29
2023-03-01T10:26:40.000Z,4.23
2023-03-01T10:27:39.967Z,4.36
2023-03-01T10:28:39.958Z,4.44
2023-03-01T10:29:39.927Z,4.52
2023-03-01T10:30:39.953Z,4.47
2023-03-01T10:31:39.940Z,4.36
2023-03-01T10:32:39.880Z,4.40
2023-03-01T10:33:39.867Z,4.44
2023-03-01T10:34:39.842Z,4.32
2023-03-01T10:35:39.885Z,4.47
2023-03-01T10:36:39.827Z,4.82
2023-03-01T10:37:39.789Z,4.99
2023-03-01T10:38:39.786Z,5.13
2023-03-01T10:39:39.756Z,5.30
2023-03-01T10:40:39.738Z,5.38
2023-03-01T10:41:39.732Z,5.39
2023-03-01T10:42:39.708Z,5.31
2023-03-01T10:43:39.691Z,5.35
2023-03-01T10:44:39.676Z,5.40
2023-03-01T10:45:39.670Z,5.49
2023-03-01T10:46:39.683Z,5.43
2023-03-01T10:47:39.646Z,5.39
2023-03-01T10:48:39.619Z,5.53
2023-03-01T10:49:39.594Z,5.58
2023-03-01T10:50:41.944Z,5.67
2023-03-01T10:51:39.767Z,5.90
2023-03-01T10:52:39.543Z,5.89
2023-03-01T10:53:39.540Z,5.75
2023-03-01T10:54:39.515Z,5.53
2023-03-01T10:55:39.505Z,5.33
2023-03-01T10:56:39.481Z,5.27
2023-03-01T10:57:42.458Z,5.07
2023-03-01T10:58:39.468Z,5.04
2023-03-01T10:59:39.513Z,4.92
2023-03-01T11:00:39.432Z,4.99
2023-03-01T11:01:39.483Z,4.72
2023-03-01T11:02:39.461Z,4.59
2023-03-01T11:03:39.609Z,4.63
2023-03-01T11:04:39.412Z,4.47
2023-03-01T11:05:39.332Z,4.42
2023-03-01T11:06:39.378Z,4.32
2023-03-01T11:07:39.295Z,4.30
2023-03-01T11:08:39.352Z,4.24
2023-03-01T11:09:39.283Z,4.32
2023-03-01T11:10:39.245Z,4.41
2023-03-01T11:11:39.252Z,4.50
2023-03-01T11:12:39.216Z,4.50
2023-03-01T11:13:39.602Z,4.52
2023-03-01T11:14:39.210Z,4.66
2023-03-01T11:15:39.163Z,4.67
2023-03-01T11:16:39.224Z,4.63
2023-03-01T11:17:53.581Z,4.63
2023-03-01T11:18:47.815Z,4.69
2023-03-01T11:19:39.126Z,4.75
2023-03-01T11:20:39.079Z,4.77
2023-03-01T11:21:39.081Z,4.94
2023-03-01T11:22:39.040Z,5.07
2023-03-01T11:23:39.021Z,5.15
2023-03-01T11:24:39.005Z,5.38
2023-03-01T11:25:39.004Z,5.42
2023-03-01T11:26:38.974Z,5.42
2023-03-01T11:27:40.054Z,5.46
2023-03-01T11:28:38.955Z,5.49
2023-03-01T11:29:48.468Z,5.46
2023-03-01T11:30:38.899Z,5.49
2023-03-01T11:31:44.023Z,5.58
2023-03-01T11:32:38.969Z,5.51
2023-03-01T11:33:38.872Z,5.51
2023-03-01T11:34:38.862Z,5.40
2023-03-01T11:35:39.029Z,5.38
2023-03-01T11:36:38.867Z,5.17
2023-03-01T11:37:38.842Z,5.24
2023-03-01T11:38:38.753Z,5.17
2023-03-01T11:39:38.733Z,5.22
2023-03-01T11:40:38.716Z,5.39
2023-03-01T11:41:38.777Z,5.35
2023-03-01T11:42:38.748Z,5.28
2023-03-01T11:43:38.664Z,5.27
2023-03-01T11:44:38.650Z,5.24
2023-03-01T11:45:38.652Z,5.30
2023-03-01T11:46:38.761Z,5.25
2023-03-01T11:47:38.703Z,5.30
2023-03-01T11:48:48.885Z,5.17
2023-03-01T11:49:38.611Z,5.21
2023-03-01T11:50:38.540Z,5.31
2023-03-01T11:51:38.526Z,5.21
2023-03-01T11:52:38.501Z,5.31
2023-03-01T11:53:38.525Z,5.40
2023-03-01T11:54:38.466Z,5.45
2023-03-01T11:55:38.451Z,5.51
2023-03-01T11:56:38.433Z,5.49
2023-03-01T11:57:43.796Z,5.58
2023-03-01T11:58:38.428Z,5.63
2023-03-01T11:59:38.394Z,5.78
2023-03-01T12:00:38.361Z,5.91
2023-03-01T12:01:41.795Z,5.90
2023-03-01T12:02:38.324Z,5.81
2023-03-01T12:03:38.311Z,5.72
2023-03-01T12:04:38.534Z,5.72
2023-03-01T12:05:38.291Z,5.67
2023-03-01T12:06:38.256Z,5.72
2023-03-01T12:07:38.291Z,5.79
2023-03-01T12:08:38.221Z,5.89
2023-03-01T12:09:38.207Z,5.78
2023-03-01T12:10:38.189Z,5.75
2023-03-01T12:11:38.207Z,5.65
2023-03-01T12:12:38.153Z,5.65
2023-03-01T12:13:39.510Z,5.56
2023-03-01T12:14:38.121Z,5.43
2023-03-01T12:15:38.140Z,5.46
2023-03-01T12:16:39.759Z,5.40
2023-03-01T12:17:38.072Z,5.43
2023-03-01T12:18:38.081Z,5.56
2023-03-01T12:19:38.044Z,5.71
2023-03-01T12:20:38.034Z,5.75
2023-03-01T12:21:38.403Z,5.79
2023-03-01T12:22:37.999Z,5.89
2023-03-01T12:23:37.988Z,5.76
2023-03-01T12:24:37.980Z,5.76
2023-03-01T12:25:37.951Z,5.83
2023-03-01T12:26:37.945Z,5.94
2023-03-01T12:27:37.904Z,5.93
2023-03-01T12:28:37.888Z,5.79
2023-03-01T12:29:37.919Z,5.90
2023-03-01T12:30:37.849Z,5.91
2023-03-01T12:31:37.881Z,6.01
2023-03-01T12:32:37.876Z,5.99
2023-03-01T12:33:37.802Z,6.00
2023-03-01T12:34:37.834Z,6.12
2023-03-01T12:35:37.776Z,6.34
2023-03-01T12:36:37.751Z,6.52
2023-03-01T12:37:37.749Z,6.67
2023-03-01T12:38:37.716Z,6.70
2023-03-01T12:39:37.716Z,6.74
2023-03-01T12:40:37.693Z,6.80
2023-03-01T12:41:37.678Z,6.61
2023-03-01T12:42:37.647Z,6.71
2023-03-01T12:43:37.634Z,6.69
2023-03-01T12:44:37.617Z,6.67
2023-03-01T12:45:37.656Z,6.79
2023-03-01T12:46:37.610Z,6.79
2023-03-01T12:47:37.591Z,6.49
2023-03-01T12:48:37.550Z,6.43
2023-03-01T12:49:37.535Z,6.41
2023-03-01T12:50:37.523Z,6.54
2023-03-01T12:51:37.508Z,6.56
2023-03-01T12:52:37.486Z,6.77
2023-03-01T12:53:37.469Z,6.79
2023-03-01T12:54:37.453Z,6.67
2023-03-01T12:55:37.473Z,6.52
2023-03-01T12:56:37.421Z,6.66
2023-03-01T12:57:37.434Z,6.76
2023-03-01T12:58:49.166Z,6.80
2023-03-01T12:59:37.378Z,6.92
2023-03-01T13:00:37.357Z,7.07
2023-03-01T13:01:37.381Z,6.89
2023-03-01T13:02:37.339Z,7.06
2023-03-01T13:03:37.335Z,6.92
2023-03-01T13:04:37.290Z,6.97
2023-03-01T13:05:37.272Z,6.77
2023-03-01T13:06:42.986Z,6.67
2023-03-01T13:07:37.241Z,6.76
2023-03-01T13:08:37.223Z,6.70
2023-03-01T13:09:37.207Z,6.69
2023-03-01T13:10:37.193Z,6.74
2023-03-01T13:11:37.210Z,6.64
2023-03-01T13:12:37.187Z,6.48
2023-03-01T13:13:37.155Z,6.34
2023-03-01T13:14:37.123Z,6.41
2023-03-01T13:15:37.112Z,6.44
2023-03-01T13:16:37.104Z,6.49
2023-03-01T13:17:37.105Z,6.40
2023-03-01T13:18:37.088Z,6.31
2023-03-01T13:19:37.038Z,6.31
2023-03-01T13:20:37.025Z,6.15
2023-03-01T13:21:37.007Z,6.08
2023-03-01T13:22:46.873Z,6.11
2023-03-01T13:23:36.976Z,6.08
2023-03-01T13:24:36.958Z,6.11
2023-03-01T13:25:42.509Z,6.03
2023-03-01T13:26:36.922Z,6.08
2023-03-01T13:27:36.951Z,6.14
2023-03-01T13:28:36.905Z,6.21
2023-03-01T13:29:36.875Z,6.30
2023-03-01T13:30:37.668Z,6.40
2023-03-01T13:31:36.883Z,6.44
2023-03-01T13:32:44.718Z,6.52
2023-03-01T13:33:36.878Z,6.64
2023-03-01T13:34:36.805Z,6.76
2023-03-01T13:35:36.801Z,6.69
2023-03-01T13:36:36.969Z,6.84
2023-03-01T13:37:36.741Z,6.87
2023-03-01T13:38:36.869Z,6.76
2023-03-01T13:39:36.729Z,6.76
2023-03-01T13:40:36.690Z,6.73
2023-03-01T13:41:36.673Z,6.70
2023-03-01T13:42:36.667Z,6.67
2023-03-01T13:43:36.707Z,6.74
2023-03-01T13:44:36.631Z,6.71
2023-03-01T13:45:36.647Z,6.61
2023-03-01T13:46:36.707Z,6.74
2023-03-01T13:47:36.572Z,6.70
2023-03-01T13:48:36.569Z,6.85
2023-03-01T13:49:46.004Z,6.87
2023-03-01T13:50:36.555Z,6.88
2023-03-01T13:51:36.516Z,6.95
2023-03-01T13:52:36.575Z,6.88
2023-03-01T13:53:36.541Z,6.94
2023-03-01T13:54:36.494Z,6.81
2023-03-01T13:55:36.454Z,6.79
2023-03-01T13:56:36.430Z,6.88
2023-03-01T13:57:36.420Z,7.07
2023-03-01T13:58:36.412Z,7.09
2023-03-01T13:59:36.417Z,7.25
2023-03-01T14:00:36.394Z,7.16
2023-03-01T14:01:36.687Z,7.27
2023-03-01T14:02:36.335Z,7.32
2023-03-01T14:03:36.414Z,7.52
2023-03-01T14:04:36.304Z,7.46
2023-03-01T14:05:36.327Z,7.53
2023-03-01T14:06:36.459Z,7.48
2023-03-01T14:07:36.347Z,7.48
2023-03-01T14:08:36.240Z,7.49
2023-03-01T14:09:36.224Z,7.37
2023-03-01T14:10:36.210Z,7.49
2023-03-01T14:11:36.202Z,7.64
2023-03-01T14:12:36.178Z,7.85
2023-03-01T14:13:36.163Z,7.97
2023-03-01T14:14:36.175Z,8.05
2023-03-01T14:15:36.161Z,8.04
2023-03-01T14:16:36.142Z,8.05
2023-03-01T14:17:36.103Z,7.95
2023-03-01T14:18:36.085Z,8.04
2023-03-01T14:19:36.117Z,8.12
2023-03-01T14:20:36.063Z,8.23
2023-03-01T14:21:36.039Z,8.36
2023-03-01T14:22:36.071Z,8.52
2023-03-01T14:23:36.013Z,8.44
2023-03-01T14:24:36.045Z,8.48
2023-03-01T14:25:35.980Z,8.40
2023-03-01T14:26:35.966Z,8.52
2023-03-01T14:27:35.952Z,8.65
2023-03-01T14:28:35.950Z,8.79
2023-03-01T14:29:35.949Z,8.91
2023-03-01T14:30:35.924Z,9.05
2023-03-01T14:31:41.079Z,9.31
2023-03-01T14:32:35.935Z,9.39
2023-03-01T14:33:35.877Z,9.42
2023-03-01T14:34:35.850Z,9.48
2023-03-01T14:35:35.899Z,9.58
2023-03-01T14:36:35.822Z,9.57
2023-03-01T14:37:35.822Z,9.66
2023-03-01T14:38:35.860Z,9.69
2023-03-01T14:39:35.789Z,9.71
2023-03-01T14:40:35.779Z,9.79
2023-03-01T14:41:35.797Z,9.86
2023-03-01T14:42:35.860Z,9.93
2023-03-01T14:43:35.764Z,10.04
2023-03-01T14:44:35.774Z,10.11
2023-03-01T14:45:35.817Z,10.17
2023-03-01T14:46:35.844Z,10.27
2023-03-01T14:47:35.776Z,10.26
2023-03-01T14:48:35.735Z,10.08
2023-03-01T14:49:35.705Z,10.11
2023-03-01T14:50:35.764Z,10.09
2023-03-01T14:51:35.642Z,9.99
2023-03-01T14:52:35.683Z,10.01
2023-03-01T14:53:45.850Z,10.08
2023-03-01T14:54:35.587Z,10.14
2023-03-01T14:55:35.606Z,10.15
2023-03-01T14:56:35.568Z,10.14
2023-03-01T14:57:35.552Z,10.11
2023-03-01T14:58:35.533Z,10.26
2023-03-01T14:59:35.522Z,10.29
2023-03-01T15:00:35.510Z,10.34
2023-03-01T15:01:35.595Z,10.34
2023-03-01T15:02:35.489Z,10.36
2023-03-01T15:03:35.518Z,10.11
2023-03-01T15:04:35.513Z,9.87
2023-03-01T15:05:35.442Z,9.83
2023-03-01T15:06:35.456Z,9.68
2023-03-01T15:07:35.419Z,9.54
2023-03-01T15:08:35.406Z,9.39
2023-03-01T15:09:35.398Z,9.43
2023-03-01T15:10:35.394Z,9.48
2023-03-01T15:11:35.376Z,9.61
2023-03-01T15:12:35.372Z,9.78
2023-03-01T15:13:35.340Z,9.78
2023-03-01T15:14:35.332Z,9.76
2023-03-01T15:15:35.380Z,9.75
2023-03-01T15:16:35.303Z,9.87
2023-03-01T15:17:35.297Z,9.93
2023-03-01T15:18:35.302Z,10.01
2023-03-01T15:19:35.284Z,10.05
2023-03-01T15:20:35.276Z,9.81
2023-03-01T15:21:35.270Z,9.84
2023-03-01T15:22:35.219Z,9.87
2023-03-01T15:23:35.209Z,9.69
2023-03-01T15:24:35.191Z,9.71
2023-03-01T15:25:35.175Z,9.69
2023-03-01T15:26:35.250Z,9.71
2023-03-01T15:27:35.149Z,9.75
2023-03-01T15:28:35.141Z,9.65
2023-03-01T15:29:35.127Z,9.50
2023-03-01T15:30:35.116Z,9.42
2023-03-01T15:31:35.162Z,9.38
2023-03-01T15:32:35.138Z,9.33
2023-03-01T15:33:35.067Z,9.39
2023-03-01T15:34:35.052Z,9.15
2023-03-01T15:35:35.152Z,9.04
2023-03-01T15:36:35.054Z,8.95
2023-03-01T15:37:35.023Z,8.89
2023-03-01T15:38:35.004Z,8.89
2023-03-01T15:39:34.999Z,8.86
2023-03-01T15:40:34.970Z,8.83
2023-03-01T15:41:34.987Z,8.81
2023-03-01T15:42:34.979Z,8.62
2023-03-01T15:43:34.929Z,8.50
2023-03-01T15:44:43.007Z,8.48
2023-03-01T15:45:35.031Z,8.37
2023-03-01T15:46:35.278Z,8.38
2023-03-01T15:47:34.878Z,8.37
2023-03-01T15:48:34.857Z,8.33
2023-03-01T15:49:36.515Z,8.43
2023-03-01T15:50:34.826Z,8.30
2023-03-01T15:51:34.857Z,8.22
2023-03-01T15:52:34.804Z,8.15
2023-03-01T15:53:37.776Z,8.12
2023-03-01T15:54:34.815Z,8.07
2023-03-01T15:55:34.761Z,8.07
2023-03-01T15:56:34.743Z,8.05
2023-03-01T15:57:34.778Z,8.11
2023-03-01T15:58:34.715Z,8.15
2023-03-01T15:59:34.704Z,8.10
2023-03-01T16:00:34.680Z,8.16
2023-03-01T16:01:34.741Z,8.12
2023-03-01T16:02:34.697Z,8.10
2023-03-01T16:03:34.636Z,7.97
2023-03-01T16:04:34.679Z,7.87
2023-03-01T16:05:34.615Z,7.87
2023-03-01T16:06:34.731Z,7.90
2023-03-01T16:07:34.643Z,7.82
2023-03-01T16:08:34.561Z,7.92
2023-03-01T16:09:34.541Z,7.97
2023-03-01T16:10:34.559Z,7.92
2023-03-01T16:11:34.525Z,8.11
2023-03-01T16:12:34.512Z,8.05
2023-03-01T16:13:34.525Z,8.10
2023-03-01T16:14:34.493Z,8.25
2023-03-01T16:15:34.447Z,8.34
2023-03-01T16:16:34.954Z,8.34
2023-03-01T16:17:34.411Z,8.26
2023-03-01T16:18:34.398Z,8.33
2023-03-01T16:19:34.408Z,8.29
2023-03-01T16:20:34.369Z,8.30
2023-03-01T16:21:34.385Z,8.38
2023-03-01T16:22:34.368Z,8.44
2023-03-01T16:23:34.325Z,8.43
2023-03-01T16:24:34.307Z,8.48
2023-03-01T16:25:34.289Z,8.50
2023-03-01T16:26:34.280Z,8.52
2023-03-01T16:27:34.277Z,8.63
2023-03-01T16:28:34.253Z,8.65
2023-03-01T16:29:34.216Z,8.66
2023-03-01T16:30:36.226Z,8.62
2023-03-01T16:31:34.571Z,8.48
2023-03-01T16:32:34.257Z,8.48
2023-03-01T16:33:34.433Z,8.50
2023-03-01T16:34:34.135Z,8.40
2023-03-01T16:35:34.151Z,8.30
2023-03-01T16:36:34.109Z,8.26
2023-03-01T16:37:34.115Z,8.07
2023-03-01T16:38:34.070Z,8.05
2023-03-01T16:39:34.055Z,8.08
2023-03-01T16:40:34.036Z,8.07
2023-03-01T16:41:34.222Z,8.05
2023-03-01T16:42:34.055Z,8.07
2023-03-01T16:43:33.988Z,8.10
2023-03-01T16:44:33.968Z,8.01
2023-03-01T16:45:33.964Z,8.10
2023-03-01T16:46:33.931Z,7.83
2023-03-01T16:47:33.944Z,7.74
2023-03-01T16:48:33.925Z,7.69
2023-03-01T16:49:33.906Z,7.67
2023-03-01T16:50:33.875Z,7.50
2023-03-01T16:51:34.080Z,7.35
2023-03-01T16:52:33.829Z,7.25
2023-03-01T16:53:33.842Z,7.24
2023-03-01T16:54:33.819Z,6.94
2023-03-01T16:55:33.785Z,6.80
2023-03-01T16:56:34.200Z,6.69
2023-03-01T16:57:33.769Z,6.52
2023-03-01T16:58:33.725Z,6.36
2023-03-01T16:59:33.736Z,6.18
2023-03-01T17:00:33.691Z,6.11
2023-03-01T17:01:34.162Z,6.00
2023-03-01T17:02:33.652Z,5.89
2023-03-01T17:03:33.648Z,5.83
2023-03-01T17:04:33.650Z,5.79
2023-03-01T17:05:33.600Z,5.71
2023-03-01T17:06:33.595Z,5.64
2023-03-01T17:07:33.593Z,5.56
2023-03-01T17:08:33.549Z,5.42
2023-03-01T17:09:33.530Z,5.40
2023-03-01T17:10:33.516Z,5.35
2023-03-01T17:11:33.936Z,5.21
2023-03-01T17:12:33.477Z,5.12
2023-03-01T17:13:33.458Z,5.12
2023-03-01T17:14:33.440Z,5.07
2023-03-01T17:15:33.428Z,5.09
2023-03-01T17:16:33.451Z,4.92
2023-03-01T17:17:33.384Z,5.03
2023-03-01T17:18:33.363Z,4.92
2023-03-01T17:19:33.388Z,4.99
2023-03-01T17:20:33.327Z,4.92
2023-03-01T17:21:33.719Z,4.82
2023-03-01T17:22:33.298Z,4.85
2023-03-01T17:23:33.280Z,4.82
2023-03-01T17:24:33.259Z,4.70
2023-03-01T17:25:33.236Z,4.58
2023-03-01T17:26:33.217Z,4.50
2023-03-01T17:27:33.274Z,4.54
2023-03-01T17:28:33.193Z,4.58
2023-03-01T17:29:33.165Z,4.50
2023-03-01T17:30:33.151Z,4.37
2023-03-01T17:31:33.552Z,4.40
2023-03-01T17:32:33.221Z,4.40
2023-03-01T17:33:33.093Z,4.32
2023-03-01T17:34:33.066Z,4.24
2023-03-01T17:35:33.080Z,4.24
2023-03-01T17:36:33.061Z,4.26
2023-03-01T17:37:33.021Z,4.08
2023-03-01T17:38:33.029Z,4.12
2023-03-01T17:39:32.974Z,3.98
2023-03-01T17:40:32.995Z,4.00
2023-03-01T17:41:33.223Z,4.00
2023-03-01T17:42:32.939Z,3.87
2023-03-01T17:43:32.942Z,3.94
2023-03-01T17:44:32.877Z,3.83
2023-03-01T17:45:32.925Z,3.94
2023-03-01T17:46:32.843Z,3.80
2023-03-01T17:47:32.852Z,3.88
2023-03-01T17:48:32.801Z,3.83
2023-03-01T17:49:32.784Z,3.75
2023-03-01T17:50:32.768Z,3.78
2023-03-01T17:51:33.132Z,3.72
2023-03-01T17:52:32.730Z,3.66
2023-03-01T17:53:32.711Z,3.66
2023-03-01T17:54:32.692Z,3.65
2023-03-01T17:55:32.671Z,3.69
2023-03-01T17:56:32.649Z,3.58
2023-03-01T17:57:32.643Z,3.57
2023-03-01T17:58:32.611Z,3.50
2023-03-01T17:59:32.601Z,3.51
2023-03-01T18:00:32.594Z,3.45
2023-03-01T18:01:32.939Z,3.40
2023-03-01T18:02:32.616Z,3.42
2023-03-01T18:03:32.519Z,3.33
2023-03-01T18:04:32.530Z,3.28
2023-03-01T18:05:32.481Z,3.26
2023-03-01T18:06:32.816Z,3.26
2023-03-01T18:07:32.458Z,3.21
2023-03-01T18:08:32.456Z,3.21
2023-03-01T18:09:32.404Z,3.28
2023-03-01T18:10:32.392Z,3.31
2023-03-01T18:11:32.701Z,3.21
2023-03-01T18:12:32.720Z,3.29
2023-03-01T18:13:32.403Z,3.29
2023-03-01T18:14:32.305Z,3.24
2023-03-01T18:15:32.303Z,3.28
2023-03-01T18:16:32.780Z,3.26
2023-03-01T18:17:32.250Z,3.29
2023-03-01T18:18:32.232Z,3.31
2023-03-01T18:19:32.214Z,3.33
2023-03-01T18:20:32.235Z,3.23
2023-03-01T18:21:32.523Z,3.23
2023-03-01T18:22:32.163Z,3.21
2023-03-01T18:23:32.140Z,3.14
2023-03-01T18:24:32.150Z,3.03
2023-03-01T18:25:32.092Z,3.03
2023-03-01T18:26:32.444Z,3.06
2023-03-01T18:27:32.080Z,3.00
2023-03-01T18:28:32.032Z,2.97
2023-03-01T18:29:32.016Z,2.92
2023-03-01T18:30:32.071Z,2.87
2023-03-01T18:31:32.201Z,2.77
2023-03-01T18:32:32.031Z,2.96
2023-03-01T18:33:31.941Z,2.89
2023-03-01T18:34:31.945Z,2.82
2023-03-01T18:35:31.942Z,2.79
2023-03-01T18:36:32.308Z,2.78
2023-03-01T18:37:31.862Z,2.81
2023-03-01T18:38:31.838Z,2.84
2023-03-01T18:39:32.699Z,2.69
2023-03-01T18:40:31.842Z,2.71
2023-03-01T18:41:32.157Z,2.66
2023-03-01T18:42:31.793Z,2.66
2023-03-01T18:43:31.746Z,2.66
2023-03-01T18:44:31.726Z,2.66
2023-03-01T18:45:31.714Z,2.82
2023-03-01T18:46:32.271Z,2.69
2023-03-01T18:47:31.682Z,2.79
2023-03-01T18:48:31.644Z,2.74
2023-03-01T18:49:31.670Z,2.87
2023-03-01T18:50:31.670Z,2.82
2023-03-01T18:51:31.973Z,2.82
2023-03-01T18:52:31.573Z,2.67
2023-03-01T18:53:31.542Z,2.72
2023-03-01T18:54:31.528Z,2.75
2023-03-01T18:55:31.535Z,2.63
2023-03-01T18:56:31.908Z,2.71
2023-03-01T18:57:31.472Z,2.64
2023-03-01T18:58:31.451Z,2.66
2023-03-01T18:59:31.484Z,2.71
2023-03-01T19:00:31.404Z,2.60
2023-03-01T19:01:32.994Z,2.57
2023-03-01T19:02:31.426Z,2.46
2023-03-01T19:03:31.453Z,2.43
2023-03-01T19:04:31.324Z,2.49
2023-03-01T19:05:31.310Z,2.48
2023-03-01T19:06:31.632Z,2.38
2023-03-01T19:07:31.296Z,2.39
2023-03-01T19:08:31.247Z,2.35
2023-03-01T19:09:31.253Z,2.39
2023-03-01T19:10:31.217Z,2.34
2023-03-01T19:11:31.612Z,2.30
2023-03-01T19:12:31.190Z,2.39
2023-03-01T19:13:31.150Z,2.38
2023-03-01T19:14:31.136Z,2.41
2023-03-01T19:15:31.141Z,2.41
2023-03-01T19:16:31.418Z,2.49
2023-03-01T19:17:31.143Z,2.48
2023-03-01T19:18:31.043Z,2.49
2023-03-01T19:19:31.029Z,2.42
2023-03-01T19:20:31.013Z,2.45
2023-03-01T19:21:31.559Z,2.46
2023-03-01T19:22:30.969Z,2.54
2023-03-01T19:23:30.972Z,2.57
2023-03-01T19:24:30.978Z,2.63
2023-03-01T19:25:30.904Z,2.59
2023-03-01T19:26:31.582Z,2.56
2023-03-01T19:27:30.874Z,2.57
2023-03-01T19:28:30.848Z,2.54
2023-03-01T19:29:30.824Z,2.54
2023-03-01T19:30:30.833Z,2.52
2023-03-01T19:31:30.999Z,2.52
2023-03-01T19:32:30.831Z,2.46
2023-03-01T19:33:30.807Z,2.54
2023-03-01T19:34:30.724Z,2.43
2023-03-01T19:35:30.798Z,2.46
2023-03-01T19:36:30.999Z,2.53
2023-03-01T19:37:30.669Z,2.42
2023-03-01T19:38:30.651Z,2.66
2023-03-01T19:39:30.695Z,2.49
2023-03-01T19:40:30.604Z,2.46
2023-03-01T19:41:30.583Z,2.52
2023-03-01T19:42:30.570Z,2.48
2023-03-01T19:43:30.544Z,2.49
2023-03-01T19:44:30.538Z,2.49
2023-03-01T19:45:33.471Z,2.45
2023-03-01T19:46:30.892Z,2.53
2023-03-01T19:47:30.498Z,2.41
2023-03-01T19:48:30.452Z,2.52
2023-03-01T19:49:30.469Z,2.56
2023-03-01T19:50:30.406Z,2.43
2023-03-01T19:51:30.390Z,2.64
2023-03-01T19:52:30.367Z,2.59
2023-03-01T19:53:30.344Z,2.57
2023-03-01T19:54:30.371Z,2.57
2023-03-01T19:55:30.311Z,2.42
2023-03-01T19:56:30.989Z,2.54
2023-03-01T19:57:30.260Z,2.49
2023-03-01T19:58:30.250Z,2.46
2023-03-01T19:59:30.218Z,2.53
2023-03-01T20:00:30.230Z,2.54
2023-03-01T20:01:30.208Z,2.46
2023-03-01T20:02:30.220Z,2.49
2023-03-01T20:03:30.153Z,2.46
2023-03-01T20:04:30.138Z,2.41
2023-03-01T20:05:30.110Z,2.53
2023-03-01T20:06:30.725Z,2.35
2023-03-01T20:07:30.067Z,2.43
2023-03-01T20:08:30.037Z,2.43
2023-03-01T20:09:30.019Z,2.42
2023-03-01T20:10:30.020Z,2.42
2023-03-01T20:11:29.984Z,2.41
2023-03-01T20:12:29.974Z,2.42
2023-03-01T20:13:29.939Z,2.36
2023-03-01T20:14:29.919Z,2.39
2023-03-01T20:15:29.932Z,2.39
2023-03-01T20:16:30.366Z,2.48
2023-03-01T20:17:29.861Z,2.49
2023-03-01T20:18:29.839Z,2.52
2023-03-01T20:19:29.861Z,2.45
2023-03-01T20:20:29.802Z,2.43
2023-03-01T20:21:29.776Z,2.36
2023-03-01T20:22:29.791Z,2.39
2023-03-01T20:23:29.748Z,2.30
2023-03-01T20:24:29.722Z,2.39
2023-03-01T20:25:29.706Z,2.27
2023-03-01T20:26:29.912Z,2.30
2023-03-01T20:27:29.709Z,2.28
2023-03-01T20:28:29.647Z,2.30
2023-03-01T20:29:29.622Z,2.20
2023-03-01T20:30:29.607Z,2.20
2023-03-01T20:31:30.068Z,2.14
2023-03-01T20:32:29.633Z,2.17
2023-03-01T20:33:29.546Z,2.21
2023-03-01T20:34:29.537Z,2.20
2023-03-01T20:35:29.523Z,2.12
2023-03-01T20:36:29.474Z,2.17
2023-03-01T20:37:29.457Z,2.14
2023-03-01T20:38:29.473Z,2.03
2023-03-01T20:39:29.428Z,2.06
2023-03-01T20:40:29.394Z,2.05
2023-03-01T20:41:29.374Z,2.02
2023-03-01T20:42:29.362Z,1.99
2023-03-01T20:43:29.347Z,2.02
2023-03-01T20:44:29.342Z,2.05
2023-03-01T20:45:29.351Z,1.99
2023-03-01T20:46:29.605Z,2.07
2023-03-01T20:47:29.271Z,2.07
2023-03-01T20:48:29.234Z,2.12
2023-03-01T20:49:29.243Z,2.14
2023-03-01T20:50:29.202Z,2.17